Time;durP1;ratioP1;P1;durP2;ratioP2;P2;SDS_P1;SDS_P2;PMS_P1;PMS_P2;Temp;Humidity;BMP_temperature;BMP_pressure;BME280_temperature;BME280_humidity;BME280_pressure;Samples;Min_cycle;Max_cycle;Signal;HPM_P1;HPM_P2
2023/05/13 00:01:26;;;;;;;;;;;;;;;;;;5051375;28;20437;-85
2023/05/13 00:03:51;;;;;;;;;;;;;;;;;;5040594;28;20008;-85
2023/05/13 00:06:16;;;;;;;;;;;;;;;;;;5042806;28;19966;-85
2023/05/13 00:08:42;;;;;;;;;;;;;;;;;;5035587;28;19954;-85
2023/05/13 00:11:07;;;;;;;;;;;;;;;;;;5039960;28;20284;-85
2023/05/13 00:13:32;;;;;;;;;;;;;;;;;;5045039;28;19908;-84
2023/05/13 00:15:58;;;;;;;;;;;;;;;;;;5036532;28;20426;-84
2023/05/13 00:18:23;;;;;;;;;;;;;;;;;;5036661;28;19908;-84
2023/05/13 00:20:48;;;;;;;;;;;;;;;;;;5037552;28;20280;-85
2023/05/13 00:23:13;;;;;;;;;;;;;;;;;;5037650;28;19916;-84
2023/05/13 00:25:40;;;;;;;;;;;;;;;;;;5068633;28;19924;-85
2023/05/13 00:28:06;;;;;;;;;;;;;;;;;;5036849;28;20371;-84
2023/05/13 00:30:31;;;;;;;;;;;;;;;;;;5034676;28;19912;-83
2023/05/13 00:32:57;;;;;;;;;;;;;;;;;;5035509;28;19955;-85
2023/05/13 00:35:22;;;;;;;;;;;;;;;;;;5035142;28;19921;-84
2023/05/13 00:37:49;;;;;;;;;;;;;;;;;;5054697;28;19931;-84
2023/05/13 00:40:15;;;;;;;;;;;;;;;;;;5034860;28;20439;-85
2023/05/13 00:42:40;;;;;;;;;;;;;;;;;;5034973;28;19913;-85
2023/05/13 00:45:05;;;;;;;;;;;;;;;;;;5018377;28;19956;-85
2023/05/13 00:47:31;;;;;;;;;;;;;;;;;;5015113;28;19916;-85
2023/05/13 00:49:56;;;;;;;;;;;;;;;;;;5031495;28;19913;-85
2023/05/13 00:52:21;;;;;;;;;;;;;;;;;;5036608;28;19917;-87
2023/05/13 00:54:47;;;;;;;;;;;;;;;;;;5035673;28;20280;-85
2023/05/13 00:57:12;;;;;;;;;;;;;;;;;;5036560;28;20398;-86
2023/05/13 00:59:38;;;;;;;;;;;;;;;;;;5036318;28;19940;-85
2023/05/13 01:02:04;;;;;;;;;;;;;;;;;;5040883;28;20272;-86
2023/05/13 01:04:29;;;;;;;;;;;;;;;;;;5040320;28;19917;-86
2023/05/13 01:06:55;;;;;;;;;;;;;;;;;;5037149;28;19889;-85
2023/05/13 01:09:20;;;;;;;;;;;;;;;;;;5036024;28;19968;-85
2023/05/13 01:11:45;;;;;;;;;;;;;;;;;;5036761;28;20003;-85
2023/05/13 01:14:11;;;;;;;;;;;;;;;;;;5037975;28;20399;-84
2023/05/13 01:16:36;;;;;;;;;;;;;;;;;;5037380;28;19908;-85
2023/05/13 01:19:01;;;;;;;;;;;;;;;;;;5039742;28;19948;-85
2023/05/13 01:21:26;;;;;;;;;;;;;;;;;;5038359;28;20257;-85
2023/05/13 01:23:52;;;;;;;;;;;;;;;;;;5039218;28;19916;-85
2023/05/13 01:26:17;;;;;;;;;;;;;;;;;;5038645;28;19982;-85
2023/05/13 01:28:43;;;;;;;;;;;;;;;;;;5044570;28;19913;-85
2023/05/13 01:31:09;;;;;;;;;;;;;;;;;;5038601;28;20388;-85
2023/05/13 01:33:35;;;;;;;;;;;;;;;;;;5044376;28;19956;-85
2023/05/13 01:36:01;;;;;;;;;;;;;;;;;;5034756;28;20461;-85
2023/05/13 01:38:26;;;;;;;;;;;;;;;;;;5039938;28;19913;-86
2023/05/13 01:40:54;;;;;;;;;;;;;;;;;;5034297;28;19932;-85
2023/05/13 01:43:19;;;;;;;;;;;;;;;;;;5037990;28;19913;-85
2023/05/13 01:45:45;;;;;;;;;;;;;;;;;;5034887;28;19913;-85
2023/05/13 01:48:11;;;;;;;;;;;;;;;;;;5035173;28;19913;-85
2023/05/13 01:50:45;;;;;;;;;;;;;;;;;;5034504;28;19909;-85
2023/05/13 01:53:11;;;;;;;;;;;;;;;;;;5034041;28;19917;-85
2023/05/13 01:55:37;;;;;;;;;;;;;;;;;;5018506;28;19954;-85
2023/05/13 01:58:03;;;;;;;;;;;;;;;;;;5045969;28;20296;-85
2023/05/13 02:00:28;;;;;;;;;;;;;;;;;;5034393;28;19962;-85
2023/05/13 02:02:54;;;;;;;;;;;;;;;;;;5034591;28;20323;-85
2023/05/13 02:05:20;;;;;;;;;;;;;;;;;;5033643;28;20328;-85
2023/05/13 02:07:45;;;;;;;;;;;;;;;;;;5036100;28;19919;-85
2023/05/13 02:10:10;;;;;;;;;;;;;;;;;;5037939;28;19913;-84
2023/05/13 02:12:36;;;;;;;;;;;;;;;;;;5042091;28;20371;-84
2023/05/13 02:15:02;;;;;;;;;;;;;;;;;;5042638;28;19936;-84
2023/05/13 02:17:29;;;;;;;;;;;;;;;;;;5035896;28;19982;-85
2023/05/13 02:19:54;;;;;;;;;;;;;;;;;;5035747;28;19909;-86
2023/05/13 02:22:20;;;;;;;;;;;;;;;;;;5039256;28;19913;-87
2023/05/13 02:24:45;;;;;;;;;;;;;;;;;;5037966;28;19995;-85
2023/05/13 02:27:15;;;;;;;;;;;;;;;;;;5040855;28;20291;-85
2023/05/13 02:29:41;;;;;;;;;;;;;;;;;;5020782;28;20381;-86
2023/05/13 02:32:06;;;;;;;;;;;;;;;;;;5040392;28;19909;-86
2023/05/13 02:34:31;;;;;;;;;;;;;;;;;;5049739;28;20011;-85
2023/05/13 02:36:57;;;;;;;;;;;;;;;;;;5043678;28;20013;-85
2023/05/13 02:39:22;;;;;;;;;;;;;;;;;;5013147;28;20360;-85
2023/05/13 02:41:48;;;;;;;;;;;;;;;;;;5047684;28;19913;-85
2023/05/13 02:44:13;;;;;;;;;;;;;;;;;;5044203;28;19919;-85
2023/05/13 02:46:39;;;;;;;;;;;;;;;;;;5036448;28;20407;-87
2023/05/13 02:49:04;;;;;;;;;;;;;;;;;;5034797;28;19909;-84
2023/05/13 02:51:30;;;;;;;;;;;;;;;;;;5017956;28;20008;-84
2023/05/13 02:53:55;;;;;;;;;;;;;;;;;;5016646;28;19949;-84
2023/05/13 02:56:21;;;;;;;;;;;;;;;;;;5036393;28;20264;-85
2023/05/13 02:58:46;;;;;;;;;;;;;;;;;;5035026;28;19916;-85
2023/05/13 03:01:12;;;;;;;;;;;;;;;;;;5031966;28;20055;-84
2023/05/13 03:03:37;;;;;;;;;;;;;;;;;;5033687;28;19916;-85
2023/05/13 03:06:03;;;;;;;;;;;;;;;;;;5016405;28;19959;-85
2023/05/13 03:08:28;;;;;;;;;;;;;;;;;;5034085;28;20411;-86
2023/05/13 03:10:53;;;;;;;;;;;;;;;;;;5032493;28;19964;-84
2023/05/13 03:13:18;;;;;;;;;;;;;;;;;;5033846;28;19908;-86
2023/05/13 03:15:44;;;;;;;;;;;;;;;;;;5037782;28;19917;-85
2023/05/13 03:18:09;;;;;;;;;;;;;;;;;;5032864;28;19917;-85
2023/05/13 03:20:34;;;;;;;;;;;;;;;;;;5036275;28;19916;-84
2023/05/13 03:23:01;;;;;;;;;;;;;;;;;;5036076;28;20012;-85
2023/05/13 03:25:26;;;;;;;;;;;;;;;;;;5019956;28;20366;-85
2023/05/13 03:27:56;;;;;;;;;;;;;;;;;;5036048;28;20402;-84
2023/05/13 03:30:26;;;;;;;;;;;;;;;;;;5045695;28;20260;-84
2023/05/13 03:32:59;;;;;;;;;;;;;;;;;;5041039;28;20307;-85
2023/05/13 03:35:25;;;;;;;;;;;;;;;;;;5036882;28;19924;-85
2023/05/13 03:37:51;;;;;;;;;;;;;;;;;;5038281;28;19920;-85
2023/05/13 03:40:16;;;;;;;;;;;;;;;;;;5036950;28;19913;-86
2023/05/13 03:42:42;;;;;;;;;;;;;;;;;;5036104;28;19924;-86
2023/05/13 03:45:07;;;;;;;;;;;;;;;;;;5064609;28;19924;-86
2023/05/13 03:47:34;;;;;;;;;;;;;;;;;;5049859;28;19912;-85
2023/05/13 03:50:03;;;;;;;;;;;;;;;;;;5043869;28;19917;-86
2023/05/13 03:52:35;;;;;;;;;;;;;;;;;;5036219;28;19917;-86
2023/05/13 03:55:00;;;;;;;;;;;;;;;;;;5036139;28;20279;-86
2023/05/13 03:57:25;;;;;;;;;;;;;;;;;;5037993;28;19909;-84
2023/05/13 03:59:51;;;;;;;;;;;;;;;;;;5039728;28;19963;-84
2023/05/13 04:02:17;;;;;;;;;;;;;;;;;;5036695;28;19908;-84
2023/05/13 04:05:08;;;;;;;;;;;;;;;;;;5030318;28;19987;-86
2023/05/13 04:07:33;;;;;;;;;;;;;;;;;;5038255;28;20387;-85
2023/05/13 04:09:58;;;;;;;;;;;;;;;;;;5036102;28;20448;-85
2023/05/13 04:12:24;;;;;;;;;;;;;;;;;;5036440;28;19920;-85
2023/05/13 04:14:49;;;;;;;;;;;;;;;;;;5041771;28;19959;-84
2023/05/13 04:17:14;;;;;;;;;;;;;;;;;;5044619;28;19919;-84
2023/05/13 04:19:40;;;;;;;;;;;;;;;;;;5036457;28;19920;-85
2023/05/13 04:22:06;;;;;;;;;;;;;;;;;;5038987;28;20012;-84
2023/05/13 04:24:32;;;;;;;;;;;;;;;;;;5036125;28;20003;-84
2023/05/13 04:26:57;;;;;;;;;;;;;;;;;;5042698;28;20362;-85
2023/05/13 04:29:22;;;;;;;;;;;;;;;;;;5038650;28;19909;-85
2023/05/13 04:31:48;;;;;;;;;;;;;;;;;;5019125;28;19916;-85
2023/05/13 04:34:14;;;;;;;;;;;;;;;;;;5055336;28;19927;-85
2023/05/13 04:36:39;;;;;;;;;;;;;;;;;;5039231;28;19964;-86
2023/05/13 04:39:05;;;;;;;;;;;;;;;;;;5033474;28;20368;-85
2023/05/13 04:41:30;;;;;;;;;;;;;;;;;;5067300;28;19921;-86
2023/05/13 04:43:56;;;;;;;;;;;;;;;;;;5035520;28;19958;-85
2023/05/13 04:46:21;;;;;;;;;;;;;;;;;;5049940;28;19920;-85
2023/05/13 04:48:49;;;;;;;;;;;;;;;;;;5044759;28;19909;-86
2023/05/13 04:51:15;;;;;;;;;;;;;;;;;;5038224;28;19913;-86
2023/05/13 04:53:40;;;;;;;;;;;;;;;;;;5043703;28;20350;-85
2023/05/13 04:56:06;;;;;;;;;;;;;;;;;;5054526;28;19913;-86
2023/05/13 04:58:31;;;;;;;;;;;;;;;;;;5035901;28;20007;-84
2023/05/13 05:00:57;;;;;;;;;;;;;;;;;;5035941;28;19913;-86
2023/05/13 05:03:22;;;;;;;;;;;;;;;;;;5020669;28;19909;-86
2023/05/13 05:05:48;;;;;;;;;;;;;;;;;;5046288;28;19916;-86
2023/05/13 05:08:14;;;;;;;;;;;;;;;;;;5044041;28;20273;-85
2023/05/13 05:10:39;;;;;;;;;;;;;;;;;;5044854;28;19904;-85
2023/05/13 05:13:06;;;;;;;;;;;;;;;;;;5041461;28;19923;-85
2023/05/13 05:15:31;;;;;;;;;;;;;;;;;;5046436;28;19913;-85
2023/05/13 05:17:58;;;;;;;;;;;;;;;;;;5041848;28;19909;-85
2023/05/13 05:20:24;;;;;;;;;;;;;;;;;;5024786;28;19913;-86
2023/05/13 05:22:53;;;;;;;;;;;;;;;;;;5042425;28;19909;-86
2023/05/13 05:25:20;;;;;;;;;;;;;;;;;;5030871;28;19967;-84
2023/05/13 05:27:46;;;;;;;;;;;;;;;;;;5046576;28;19948;-86
2023/05/13 05:30:11;;;;;;;;;;;;;;;;;;5047363;28;20427;-88
2023/05/13 05:32:37;;;;;;;;;;;;;;;;;;5038924;28;19909;-85
2023/05/13 05:35:04;;;;;;;;;;;;;;;;;;5046781;28;19925;-86
2023/05/13 05:37:30;;;;;;;;;;;;;;;;;;5029096;28;20447;-78
2023/05/13 05:39:55;;;;;;;;;;;;;;;;;;5041405;28;19948;-86
2023/05/13 05:42:21;;;;;;;;;;;;;;;;;;5075665;28;19909;-86
2023/05/13 05:44:46;;;;;;;;;;;;;;;;;;5040104;28;20394;-88
2023/05/13 05:47:11;;;;;;;;;;;;;;;;;;5043745;28;19915;-89
2023/05/13 05:49:37;;;;;;;;;;;;;;;;;;5043648;28;20526;-89
2023/05/13 05:52:02;;;;;;;;;;;;;;;;;;5031239;28;20302;-86
2023/05/13 05:54:29;;;;;;;;;;;;;;;;;;5044052;28;20353;-90
2023/05/13 05:56:54;;;;;;;;;;;;;;;;;;5041490;28;19980;-88
2023/05/13 05:59:19;;;;;;;;;;;;;;;;;;5034841;28;19956;-88
2023/05/13 06:01:45;;;;;;;;;;;;;;;;;;5036071;28;19909;-86
2023/05/13 06:04:10;;;;;;;;;;;;;;;;;;5020963;28;20310;-87
2023/05/13 06:06:36;;;;;;;;;;;;;;;;;;5035067;28;19987;-85
2023/05/13 06:09:01;;;;;;;;;;;;;;;;;;5039889;28;19935;-84
2023/05/13 06:11:26;;;;;;;;;;;;;;;;;;5046860;28;19930;-83
2023/05/13 06:13:52;;;;;;;;;;;;;;;;;;5041317;28;19917;-88
2023/05/13 06:16:17;;;;;;;;;;;;;;;;;;5040452;28;19909;-87
2023/05/13 06:18:42;;;;;;;;;;;;;;;;;;5050090;28;20013;-88
2023/05/13 06:21:08;;;;;;;;;;;;;;;;;;5047726;28;19916;-84
2023/05/13 06:23:33;;;;;;;;;;;;;;;;;;5043274;28;19916;-83
2023/05/13 06:25:58;;;;;;;;;;;;;;;;;;5075515;28;19916;-81
2023/05/13 06:28:24;;;;;;;;;;;;;;;;;;5042031;28;20036;-81
2023/05/13 06:30:49;;;;;;;;;;;;;;;;;;5040269;28;19908;-82
2023/05/13 06:33:14;;;;;;;;;;;;;;;;;;5035516;28;19919;-80
2023/05/13 06:35:40;;;;;;;;;;;;;;;;;;5038727;28;20377;-78
2023/05/13 06:38:06;;;;;;;;;;;;;;;;;;5039588;28;19913;-82
2023/05/13 06:40:33;;;;;;;;;;;;;;;;;;5034575;28;20284;-81
2023/05/13 06:42:58;;;;;;;;;;;;;;;;;;5043076;28;19919;-83
2023/05/13 06:45:35;;;;;;;;;;;;;;;;;;5055053;28;20341;-85
2023/05/13 06:48:00;;;;;;;;;;;;;;;;;;5049945;28;19955;-82
2023/05/13 06:50:26;;;;;;;;;;;;;;;;;;5060626;28;20015;-83
2023/05/13 06:52:51;;;;;;;;;;;;;;;;;;5045453;28;19912;-83
2023/05/13 06:55:17;;;;;;;;;;;;;;;;;;5061268;28;19908;-85
2023/05/13 06:57:45;;;;;;;;;;;;;;;;;;5041574;28;20311;-87
2023/05/13 07:00:10;;;;;;;;;;;;;;;;;;5040729;28;19913;-83
2023/05/13 07:02:36;;;;;;;;;;;;;;;;;;5072549;28;20007;-82
2023/05/13 07:05:02;;;;;;;;;;;;;;;;;;5085773;28;19913;-84
2023/05/13 07:07:27;;;;;;;;;;;;;;;;;;5050522;28;19912;-84
2023/05/13 07:09:52;;;;;;;;;;;;;;;;;;5051011;28;19912;-84
2023/05/13 07:12:17;;;;;;;;;;;;;;;;;;5050344;28;19913;-83
2023/05/13 07:14:44;;;;;;;;;;;;;;;;;;5050579;28;19996;-83
2023/05/13 07:17:09;;;;;;;;;;;;;;;;;;5049378;28;19975;-82
2023/05/13 07:19:34;;;;;;;;;;;;;;;;;;5057427;28;19910;-82
2023/05/13 07:22:00;;;;;;;;;;;;;;;;;;5074075;28;19923;-83
2023/05/13 07:24:25;;;;;;;;;;;;;;;;;;5048072;28;19919;-83
2023/05/13 07:26:50;;;;;;;;;;;;;;;;;;5049269;28;19967;-84
2023/05/13 07:29:16;;;;;;;;;;;;;;;;;;5057709;28;19920;-83
2023/05/13 07:31:41;;;;;;;;;;;;;;;;;;5055102;28;19913;-83
2023/05/13 07:34:07;;;;;;;;;;;;;;;;;;5060575;28;19980;-83
2023/05/13 07:36:32;;;;;;;;;;;;;;;;;;5054330;28;19913;-82
2023/05/13 07:38:57;;;;;;;;;;;;;;;;;;5066538;28;19909;-85
2023/05/13 07:41:23;;;;;;;;;;;;;;;;;;5043494;28;19919;-84
2023/05/13 07:43:48;;;;;;;;;;;;;;;;;;5045106;28;19913;-84
2023/05/13 07:46:13;;;;;;;;;;;;;;;;;;5044817;28;20008;-84
2023/05/13 07:48:39;;;;;;;;;;;;;;;;;;5049372;28;20395;-83
2023/05/13 07:51:04;;;;;;;;;;;;;;;;;;5053177;28;19913;-84
2023/05/13 07:53:29;;;;;;;;;;;;;;;;;;5054463;28;20011;-83
2023/05/13 07:55:55;;;;;;;;;;;;;;;;;;5039833;28;19920;-84
2023/05/13 07:58:20;;;;;;;;;;;;;;;;;;5069217;28;19947;-84
2023/05/13 08:00:45;;;;;;;;;;;;;;;;;;5043333;28;19948;-86
2023/05/13 08:03:11;;;;;;;;;;;;;;;;;;5049023;28;19913;-89
2023/05/13 08:05:36;;;;;;;;;;;;;;;;;;5037554;28;19917;-87
2023/05/13 08:08:02;;;;;;;;;;;;;;;;;;5036891;28;19959;-82
2023/05/13 08:10:28;;;;;;;;;;;;;;;;;;5044240;28;19936;-81
2023/05/13 08:12:56;;;;;;;;;;;;;;;;;;5052162;28;19912;-80
2023/05/13 08:15:21;;;;;;;;;;;;;;;;;;5037711;28;20063;-82
2023/05/13 08:17:47;;;;;;;;;;;;;;;;;;5036872;28;19963;-83
2023/05/13 08:20:14;;;;;;;;;;;;;;;;;;5036440;28;19913;-80
2023/05/13 08:22:39;;;;;;;;;;;;;;;;;;5036974;28;20391;-81
2023/05/13 08:25:04;;;;;;;;;;;;;;;;;;5035438;28;19917;-81
2023/05/13 08:27:30;;;;;;;;;;;;;;;;;;5036798;28;19913;-80
2023/05/13 08:29:55;;;;;;;;;;;;;;;;;;5036614;28;19913;-80
2023/05/13 08:32:20;;;;;;;;;;;;;;;;;;5036689;28;19913;-81
2023/05/13 08:34:46;;;;;;;;;;;;;;;;;;5037358;28;19925;-79
2023/05/13 08:37:11;;;;;;;;;;;;;;;;;;5035685;28;19967;-78
2023/05/13 08:39:37;;;;;;;;;;;;;;;;;;5034352;28;19912;-79
2023/05/13 08:42:02;;;;;;;;;;;;;;;;;;5036105;28;19917;-79
2023/05/13 08:44:28;;;;;;;;;;;;;;;;;;5036434;28;20383;-79
2023/05/13 08:46:53;;;;;;;;;;;;;;;;;;5038003;28;19919;-79
2023/05/13 08:49:18;;;;;;;;;;;;;;;;;;5033502;28;20007;-79
2023/05/13 08:51:45;;;;;;;;;;;;;;;;;;5033643;28;19963;-79
2023/05/13 08:54:10;;;;;;;;;;;;;;;;;;5036277;28;19917;-79
2023/05/13 08:56:36;;;;;;;;;;;;;;;;;;5042447;28;19936;-79
2023/05/13 08:59:01;;;;;;;;;;;;;;;;;;5034122;28;19913;-78
2023/05/13 09:01:26;;;;;;;;;;;;;;;;;;5034421;28;19935;-78
2023/05/13 09:03:52;;;;;;;;;;;;;;;;;;5038399;28;19917;-79
2023/05/13 09:06:17;;;;;;;;;;;;;;;;;;5038610;28;19909;-78
2023/05/13 09:08:42;;;;;;;;;;;;;;;;;;5041305;28;19935;-79
2023/05/13 09:11:08;;;;;;;;;;;;;;;;;;5037789;28;20333;-80
2023/05/13 09:13:33;;;;;;;;;;;;;;;;;;5036974;28;19920;-81
2023/05/13 09:15:58;;;;;;;;;;;;;;;;;;5035176;28;19940;-77
2023/05/13 09:18:25;;;;;;;;;;;;;;;;;;5042071;28;20272;-77
2023/05/13 09:20:51;;;;;;;;;;;;;;;;;;5034763;28;19923;-76
2023/05/13 09:23:16;;;;;;;;;;;;;;;;;;5035398;28;19913;-77
2023/05/13 09:25:41;;;;;;;;;;;;;;;;;;5038189;28;20008;-79
2023/05/13 09:28:07;;;;;;;;;;;;;;;;;;5033706;28;19925;-78
2023/05/13 09:30:32;;;;;;;;;;;;;;;;;;5034309;28;19959;-78
2023/05/13 09:32:57;;;;;;;;;;;;;;;;;;5033734;28;19913;-79
2023/05/13 09:35:23;;;;;;;;;;;;;;;;;;5035816;28;20012;-79
2023/05/13 09:37:48;;;;;;;;;;;;;;;;;;5034861;28;19913;-78
2023/05/13 09:40:13;;;;;;;;;;;;;;;;;;5032234;28;19909;-79
2023/05/13 09:42:39;;;;;;;;;;;;;;;;;;5033252;28;19913;-79
2023/05/13 09:45:05;;;;;;;;;;;;;;;;;;5031972;28;19928;-77
2023/05/13 09:47:30;;;;;;;;;;;;;;;;;;5032932;28;19967;-77
2023/05/13 09:49:56;;;;;;;;;;;;;;;;;;5037144;28;19940;-79
2023/05/13 09:52:21;;;;;;;;;;;;;;;;;;5032023;28;19913;-79
2023/05/13 09:54:47;;;;;;;;;;;;;;;;;;5060821;28;19915;-79
2023/05/13 09:57:12;;;;;;;;;;;;;;;;;;5032992;28;20003;-79
2023/05/13 09:59:37;;;;;;;;;;;;;;;;;;5032699;28;19913;-79
2023/05/13 10:02:03;;;;;;;;;;;;;;;;;;5032466;28;19913;-79
2023/05/13 10:04:28;;;;;;;;;;;;;;;;;;5032829;28;19917;-79
2023/05/13 10:06:53;;;;;;;;;;;;;;;;;;5032286;28;20429;-79
2023/05/13 10:09:21;;;;;;;;;;;;;;;;;;5032664;28;19913;-78
2023/05/13 10:11:46;;;;;;;;;;;;;;;;;;5034815;28;20351;-77
2023/05/13 10:14:12;;;;;;;;;;;;;;;;;;5035924;28;19940;-77
2023/05/13 10:16:37;;;;;;;;;;;;;;;;;;5034709;28;20379;-78
2023/05/13 10:19:03;;;;;;;;;;;;;;;;;;5037130;28;19916;-77
2023/05/13 10:21:29;;;;;;;;;;;;;;;;;;5040743;28;19913;-78
2023/05/13 10:23:54;;;;;;;;;;;;;;;;;;5035061;28;19920;-79
2023/05/13 10:26:22;;;;;;;;;;;;;;;;;;5033961;28;19920;-78
2023/05/13 10:28:48;;;;;;;;;;;;;;;;;;5036621;28;19913;-77
2023/05/13 10:31:13;;;;;;;;;;;;;;;;;;5044101;28;19912;-78
2023/05/13 10:33:39;;;;;;;;;;;;;;;;;;5037248;28;19921;-79
2023/05/13 10:36:04;;;;;;;;;;;;;;;;;;5041413;28;19917;-78
2023/05/13 10:38:29;;;;;;;;;;;;;;;;;;5034859;28;19935;-78
2023/05/13 10:40:55;;;;;;;;;;;;;;;;;;5033373;28;19959;-79
2023/05/13 10:43:20;;;;;;;;;;;;;;;;;;5034334;28;19921;-76
2023/05/13 10:45:45;;;;;;;;;;;;;;;;;;5035095;28;20315;-79
2023/05/13 10:48:11;;;;;;;;;;;;;;;;;;5034691;28;20348;-78
2023/05/13 10:50:37;;;;;;;;;;;;;;;;;;5032664;28;19920;-79
2023/05/13 10:53:03;;;;;;;;;;;;;;;;;;5030778;28;20015;-78
2023/05/13 10:55:29;;;;;;;;;;;;;;;;;;5032430;28;19917;-78
2023/05/13 10:57:54;;;;;;;;;;;;;;;;;;5034490;28;19933;-79
2023/05/13 11:00:19;;;;;;;;;;;;;;;;;;5037857;28;19920;-78
2023/05/13 11:02:44;;;;;;;;;;;;;;;;;;5033569;28;19962;-77
2023/05/13 11:05:10;;;;;;;;;;;;;;;;;;5035614;28;19921;-77
2023/05/13 11:07:35;;;;;;;;;;;;;;;;;;5037982;28;19908;-79
2023/05/13 11:10:01;;;;;;;;;;;;;;;;;;5035402;28;19960;-78
2023/05/13 11:12:26;;;;;;;;;;;;;;;;;;5034396;28;19912;-79
2023/05/13 11:14:51;;;;;;;;;;;;;;;;;;5035149;28;20342;-78
2023/05/13 11:17:17;;;;;;;;;;;;;;;;;;5036240;28;19912;-80
2023/05/13 11:19:43;;;;;;;;;;;;;;;;;;5031960;28;19971;-78
2023/05/13 11:22:11;;;;;;;;;;;;;;;;;;5036048;28;19948;-79
2023/05/13 11:24:36;;;;;;;;;;;;;;;;;;5033980;28;19916;-79
2023/05/13 11:27:02;;;;;;;;;;;;;;;;;;5039466;28;20343;-80
2023/05/13 11:29:28;;;;;;;;;;;;;;;;;;5035898;28;19913;-78
2023/05/13 11:31:58;;;;;;;;;;;;;;;;;;5040507;28;20284;-79
2023/05/13 11:34:24;;;;;;;;;;;;;;;;;;5035916;28;19967;-79
2023/05/13 11:36:49;;;;;;;;;;;;;;;;;;5039958;28;19909;-79
2023/05/13 11:39:15;;;;;;;;;;;;;;;;;;5030971;28;19951;-79
2023/05/13 11:41:40;;;;;;;;;;;;;;;;;;5034797;28;19913;-78
2023/05/13 11:44:05;;;;;;;;;;;;;;;;;;5034783;28;19913;-79
2023/05/13 11:46:30;;;;;;;;;;;;;;;;;;5036704;28;19913;-79
2023/05/13 11:48:56;;;;;;;;;;;;;;;;;;5035787;28;19947;-78
2023/05/13 11:51:21;;;;;;;;;;;;;;;;;;5037063;28;20336;-79
2023/05/13 11:53:47;;;;;;;;;;;;;;;;;;5040896;28;19919;-78
2023/05/13 11:56:12;;;;;;;;;;;;;;;;;;5040269;28;19917;-79
2023/05/13 11:58:37;;;;;;;;;;;;;;;;;;5034697;28;19920;-77
2023/05/13 12:01:03;;;;;;;;;;;;;;;;;;5038929;28;19943;-78
2023/05/13 12:03:28;;;;;;;;;;;;;;;;;;5039816;28;19913;-78
2023/05/13 12:05:53;;;;;;;;;;;;;;;;;;5036187;28;19909;-77
2023/05/13 12:08:19;;;;;;;;;;;;;;;;;;5036680;28;19964;-79
2023/05/13 12:10:44;;;;;;;;;;;;;;;;;;5034718;28;20295;-78
2023/05/13 12:13:09;;;;;;;;;;;;;;;;;;5034497;28;19936;-78
2023/05/13 12:15:34;;;;;;;;;;;;;;;;;;5034793;28;20394;-80
2023/05/13 12:18:00;;;;;;;;;;;;;;;;;;5037391;28;19916;-78
2023/05/13 12:20:25;;;;;;;;;;;;;;;;;;5036040;28;19919;-78
2023/05/13 12:22:51;;;;;;;;;;;;;;;;;;5035822;28;19928;-79
2023/05/13 12:25:16;;;;;;;;;;;;;;;;;;5030581;28;19913;-77
2023/05/13 12:27:42;;;;;;;;;;;;;;;;;;5034458;28;19920;-78
2023/05/13 12:30:07;;;;;;;;;;;;;;;;;;5036535;28;19994;-79
2023/05/13 12:32:32;;;;;;;;;;;;;;;;;;5043841;28;19944;-79
2023/05/13 12:34:57;;;;;;;;;;;;;;;;;;5034346;28;20052;-79
2023/05/13 12:37:23;;;;;;;;;;;;;;;;;;5035248;28;19913;-79
2023/05/13 12:39:48;;;;;;;;;;;;;;;;;;5032702;28;21334;-79
2023/05/13 12:42:13;;;;;;;;;;;;;;;;;;5034399;28;19920;-79
2023/05/13 12:44:39;;;;;;;;;;;;;;;;;;5034597;28;19912;-82
2023/05/13 12:47:05;;;;;;;;;;;;;;;;;;5033693;28;19913;-78
2023/05/13 12:49:31;;;;;;;;;;;;;;;;;;5033221;28;19963;-78
2023/05/13 12:51:56;;;;;;;;;;;;;;;;;;5033789;28;19959;-77
2023/05/13 12:54:21;;;;;;;;;;;;;;;;;;5033190;28;19921;-79
2023/05/13 12:56:47;;;;;;;;;;;;;;;;;;5035177;28;20336;-80
2023/05/13 12:59:13;;;;;;;;;;;;;;;;;;5047878;28;20023;-79
2023/05/13 13:01:38;;;;;;;;;;;;;;;;;;5036235;28;19952;-79
2023/05/13 13:04:03;;;;;;;;;;;;;;;;;;5035773;28;19909;-77
2023/05/13 13:06:29;;;;;;;;;;;;;;;;;;5033695;28;19920;-79
2023/05/13 13:08:55;;;;;;;;;;;;;;;;;;5033757;28;20288;-79
2023/05/13 13:11:20;;;;;;;;;;;;;;;;;;5029306;28;20315;-77
2023/05/13 13:13:45;;;;;;;;;;;;;;;;;;5033261;28;20082;-79
2023/05/13 13:16:12;;;;;;;;;;;;;;;;;;5016232;28;19917;-78
2023/05/13 13:18:37;;;;;;;;;;;;;;;;;;5033849;28;19913;-79
2023/05/13 13:21:04;;;;;;;;;;;;;;;;;;5034725;28;19935;-78
2023/05/13 13:23:29;;;;;;;;;;;;;;;;;;5032495;28;19913;-79
2023/05/13 13:25:54;;;;;;;;;;;;;;;;;;5033609;28;20349;-80
2023/05/13 13:28:19;;;;;;;;;;;;;;;;;;5034043;28;19917;-78
2023/05/13 13:30:45;;;;;;;;;;;;;;;;;;5038766;28;19913;-78
2023/05/13 13:33:11;;;;;;;;;;;;;;;;;;5037798;28;19921;-79
2023/05/13 13:35:36;;;;;;;;;;;;;;;;;;5032231;28;19927;-79
2023/05/13 13:38:01;;;;;;;;;;;;;;;;;;5035925;28;19991;-77
2023/05/13 13:40:27;;;;;;;;;;;;;;;;;;5033724;28;19912;-79
2023/05/13 13:42:52;;;;;;;;;;;;;;;;;;5033125;28;19921;-79
2023/05/13 13:45:17;;;;;;;;;;;;;;;;;;5033598;28;19912;-79
2023/05/13 13:47:43;;;;;;;;;;;;;;;;;;5033679;28;20398;-79
2023/05/13 13:50:08;;;;;;;;;;;;;;;;;;5032365;28;20000;-78
2023/05/13 13:52:33;;;;;;;;;;;;;;;;;;5045026;28;19912;-78
2023/05/13 13:54:59;;;;;;;;;;;;;;;;;;5032896;28;19917;-77
2023/05/13 13:57:24;;;;;;;;;;;;;;;;;;5033207;28;20318;-78
2023/05/13 13:59:49;;;;;;;;;;;;;;;;;;5033649;28;20334;-78
2023/05/13 14:02:16;;;;;;;;;;;;;;;;;;5034273;28;19920;-78
2023/05/13 14:04:41;;;;;;;;;;;;;;;;;;5032988;28;19917;-80
2023/05/13 14:07:06;;;;;;;;;;;;;;;;;;5034511;28;19913;-79
2023/05/13 14:09:32;;;;;;;;;;;;;;;;;;5033473;28;19908;-79
2023/05/13 14:11:57;;;;;;;;;;;;;;;;;;5034308;28;20003;-79
2023/05/13 14:14:23;;;;;;;;;;;;;;;;;;5033567;28;19913;-78
2023/05/13 14:16:48;;;;;;;;;;;;;;;;;;5033918;28;19959;-79
2023/05/13 14:19:14;;;;;;;;;;;;;;;;;;5034799;28;20323;-79
2023/05/13 14:21:39;;;;;;;;;;;;;;;;;;5035340;28;19913;-78
2023/05/13 14:24:07;;;;;;;;;;;;;;;;;;5034380;28;19909;-78
2023/05/13 14:26:32;;;;;;;;;;;;;;;;;;5034240;28;20304;-79
2023/05/13 14:28:57;;;;;;;;;;;;;;;;;;5035119;28;19913;-78
2023/05/13 14:31:23;;;;;;;;;;;;;;;;;;5034285;28;19920;-78
2023/05/13 14:33:48;;;;;;;;;;;;;;;;;;5036576;28;19951;-78
2023/05/13 14:36:15;;;;;;;;;;;;;;;;;;5031811;28;19921;-78
2023/05/13 14:38:40;;;;;;;;;;;;;;;;;;5032569;28;19909;-78
2023/05/13 14:41:06;;;;;;;;;;;;;;;;;;5043288;28;19913;-78
2023/05/13 14:43:31;;;;;;;;;;;;;;;;;;5032294;28;19917;-79
2023/05/13 14:45:56;;;;;;;;;;;;;;;;;;5035729;28;20454;-79
2023/05/13 14:48:22;;;;;;;;;;;;;;;;;;5032946;28;19956;-77
2023/05/13 14:50:47;;;;;;;;;;;;;;;;;;5036557;28;19916;-77
2023/05/13 14:53:12;;;;;;;;;;;;;;;;;;5037324;28;20027;-79
2023/05/13 14:55:38;;;;;;;;;;;;;;;;;;5038502;28;20294;-79
2023/05/13 14:58:03;;;;;;;;;;;;;;;;;;5040257;28;19955;-78
2023/05/13 15:00:28;;;;;;;;;;;;;;;;;;5036819;28;19916;-79
2023/05/13 15:02:54;;;;;;;;;;;;;;;;;;5031098;28;19913;-79
2023/05/13 15:05:19;;;;;;;;;;;;;;;;;;5037716;28;19959;-77
2023/05/13 15:07:44;;;;;;;;;;;;;;;;;;5042131;28;20448;-78
2023/05/13 15:10:10;;;;;;;;;;;;;;;;;;5038825;28;20093;-78
2023/05/13 15:12:35;;;;;;;;;;;;;;;;;;5038583;28;20006;-81
2023/05/13 15:15:01;;;;;;;;;;;;;;;;;;5040995;28;19921;-79
2023/05/13 15:17:26;;;;;;;;;;;;;;;;;;5047410;28;19913;-79
2023/05/13 15:20:16;;;;;;;;;;;;;;;;;;5040499;28;20020;-78
2023/05/13 15:22:41;;;;;;;;;;;;;;;;;;5052466;28;20003;-78
2023/05/13 15:25:07;;;;;;;;;;;;;;;;;;5041468;28;19934;-78
2023/05/13 15:27:32;;;;;;;;;;;;;;;;;;5047254;28;20427;-79
2023/05/13 15:29:57;;;;;;;;;;;;;;;;;;5039985;28;20364;-79
2023/05/13 15:32:23;;;;;;;;;;;;;;;;;;5046480;28;19919;-76
2023/05/13 15:34:48;;;;;;;;;;;;;;;;;;5040473;28;19924;-76
2023/05/13 15:37:13;;;;;;;;;;;;;;;;;;5053941;28;19935;-76
2023/05/13 15:39:38;;;;;;;;;;;;;;;;;;5036640;28;19924;-78
2023/05/13 15:42:04;;;;;;;;;;;;;;;;;;5036167;28;20368;-79
2023/05/13 15:44:29;;;;;;;;;;;;;;;;;;5034927;28;19919;-77
2023/05/13 15:46:55;;;;;;;;;;;;;;;;;;5035684;28;19920;-78
2023/05/13 15:49:21;;;;;;;;;;;;;;;;;;5037138;28;19914;-77
2023/05/13 15:51:46;;;;;;;;;;;;;;;;;;5052306;28;19912;-78
2023/05/13 15:54:11;;;;;;;;;;;;;;;;;;5038624;28;19912;-78
2023/05/13 15:56:37;;;;;;;;;;;;;;;;;;5034558;28;19967;-75
2023/05/13 15:59:02;;;;;;;;;;;;;;;;;;5034877;28;19912;-76
2023/05/13 16:01:27;;;;;;;;;;;;;;;;;;5035538;28;19912;-76
2023/05/13 16:03:52;;;;;;;;;;;;;;;;;;5036364;28;19917;-77
2023/05/13 16:06:18;;;;;;;;;;;;;;;;;;5035788;28;20273;-77
2023/05/13 16:08:43;;;;;;;;;;;;;;;;;;5036123;28;20378;-78
2023/05/13 16:11:10;;;;;;;;;;;;;;;;;;5065985;28;19920;-77
2023/05/13 16:13:36;;;;;;;;;;;;;;;;;;5035438;28;19920;-77
2023/05/13 16:16:01;;;;;;;;;;;;;;;;;;5035811;28;19916;-77
2023/05/13 16:18:26;;;;;;;;;;;;;;;;;;5035147;28;19939;-77
2023/05/13 16:20:53;;;;;;;;;;;;;;;;;;5036757;28;19912;-78
2023/05/13 16:23:18;;;;;;;;;;;;;;;;;;5042005;28;19913;-78
2023/05/13 16:25:44;;;;;;;;;;;;;;;;;;5035468;28;19913;-78
2023/05/13 16:28:09;;;;;;;;;;;;;;;;;;5043871;28;19909;-76
2023/05/13 16:30:35;;;;;;;;;;;;;;;;;;5036778;28;19913;-76
2023/05/13 16:33:00;;;;;;;;;;;;;;;;;;5037703;28;19916;-76
2023/05/13 16:35:26;;;;;;;;;;;;;;;;;;5025875;28;20383;-76